sensor_id;sensor_type;location;lat;lon;timestamp;P1;durP1;ratioP1;P2;durP2;ratioP2
22080;SDS011;11207;59.512;18.050;2023-10-13T00:00:37;2.10;;;2.00;;
22080;SDS011;11207;59.512;18.050;2023-10-13T00:03:05;2.40;;;2.30;;
22080;SDS011;11207;59.512;18.050;2023-10-13T00:05:34;2.23;;;2.13;;
22080;SDS011;11207;59.512;18.050;2023-10-13T00:08:00;3.07;;;2.23;;
22080;SDS011;11207;59.512;18.050;2023-10-13T00:10:30;2.27;;;2.13;;
22080;SDS011;11207;59.512;18.050;2023-10-13T00:12:58;3.63;;;2.20;;
22080;SDS011;11207;59.512;18.050;2023-10-13T00:15:51;2.60;;;2.20;;
22080;SDS011;11207;59.512;18.050;2023-10-13T00:18:26;2.33;;;2.17;;
22080;SDS011;11207;59.512;18.050;2023-10-13T00:20:58;2.70;;;2.50;;
22080;SDS011;11207;59.512;18.050;2023-10-13T00:23:24;2.33;;;2.13;;
22080;SDS011;11207;59.512;18.050;2023-10-13T00:25:52;3.73;;;2.30;;
22080;SDS011;11207;59.512;18.050;2023-10-13T00:28:27;4.00;;;2.40;;
22080;SDS011;11207;59.512;18.050;2023-10-13T00:31:10;2.10;;;2.00;;
22080;SDS011;11207;59.512;18.050;2023-10-13T00:33:37;2.40;;;2.27;;
22080;SDS011;11207;59.512;18.050;2023-10-13T00:36:04;2.43;;;2.20;;
22080;SDS011;11207;59.512;18.050;2023-10-13T00:38:32;2.70;;;2.50;;
22080;SDS011;11207;59.512;18.050;2023-10-13T00:40:58;2.60;;;2.40;;
22080;SDS011;11207;59.512;18.050;2023-10-13T00:43:44;4.30;;;2.20;;
22080;SDS011;11207;59.512;18.050;2023-10-13T00:46:11;2.53;;;2.33;;
22080;SDS011;11207;59.512;18.050;2023-10-13T00:48:40;2.50;;;2.30;;
22080;SDS011;11207;59.512;18.050;2023-10-13T00:51:08;2.37;;;2.20;;
22080;SDS011;11207;59.512;18.050;2023-10-13T00:53:44;2.47;;;2.20;;
22080;SDS011;11207;59.512;18.050;2023-10-13T00:56:12;2.50;;;2.40;;
22080;SDS011;11207;59.512;18.050;2023-10-13T00:58:46;2.20;;;2.10;;
22080;SDS011;11207;59.512;18.050;2023-10-13T01:01:12;2.40;;;2.23;;
22080;SDS011;11207;59.512;18.050;2023-10-13T01:03:50;2.50;;;2.30;;
22080;SDS011;11207;59.512;18.050;2023-10-13T01:06:21;2.20;;;2.10;;
22080;SDS011;11207;59.512;18.050;2023-10-13T01:08:56;2.33;;;2.13;;
22080;SDS011;11207;59.512;18.050;2023-10-13T01:11:44;3.57;;;2.13;;
22080;SDS011;11207;59.512;18.050;2023-10-13T01:14:13;2.80;;;2.60;;
22080;SDS011;11207;59.512;18.050;2023-10-13T01:16:49;2.20;;;2.00;;
22080;SDS011;11207;59.512;18.050;2023-10-13T01:19:18;2.40;;;2.30;;
22080;SDS011;11207;59.512;18.050;2023-10-13T01:21:49;2.47;;;2.27;;
22080;SDS011;11207;59.512;18.050;2023-10-13T01:24:21;2.23;;;2.10;;
22080;SDS011;11207;59.512;18.050;2023-10-13T01:26:49;2.57;;;2.37;;
22080;SDS011;11207;59.512;18.050;2023-10-13T01:29:17;3.40;;;2.40;;
22080;SDS011;11207;59.512;18.050;2023-10-13T01:31:44;3.23;;;2.40;;
22080;SDS011;11207;59.512;18.050;2023-10-13T01:34:17;4.03;;;2.73;;
22080;SDS011;11207;59.512;18.050;2023-10-13T01:36:54;2.70;;;2.43;;
22080;SDS011;11207;59.512;18.050;2023-10-13T01:39:21;2.60;;;2.40;;
22080;SDS011;11207;59.512;18.050;2023-10-13T01:41:54;2.70;;;2.20;;
22080;SDS011;11207;59.512;18.050;2023-10-13T01:44:20;3.27;;;2.60;;
22080;SDS011;11207;59.512;18.050;2023-10-13T01:46:55;2.57;;;2.40;;
22080;SDS011;11207;59.512;18.050;2023-10-13T01:49:24;3.80;;;2.63;;
22080;SDS011;11207;59.512;18.050;2023-10-13T01:51:50;2.43;;;2.23;;
22080;SDS011;11207;59.512;18.050;2023-10-13T01:54:16;3.57;;;2.30;;
22080;SDS011;11207;59.512;18.050;2023-10-13T01:56:42;5.53;;;2.50;;
22080;SDS011;11207;59.512;18.050;2023-10-13T01:59:12;2.20;;;2.10;;
22080;SDS011;11207;59.512;18.050;2023-10-13T02:01:38;2.50;;;2.30;;
22080;SDS011;11207;59.512;18.050;2023-10-13T02:04:05;2.47;;;2.27;;
22080;SDS011;11207;59.512;18.050;2023-10-13T02:06:32;2.40;;;2.20;;
22080;SDS011;11207;59.512;18.050;2023-10-13T02:09:10;2.70;;;2.50;;
22080;SDS011;11207;59.512;18.050;2023-10-13T02:11:42;2.30;;;2.20;;
22080;SDS011;11207;59.512;18.050;2023-10-13T02:14:12;2.70;;;2.50;;
22080;SDS011;11207;59.512;18.050;2023-10-13T02:16:41;4.53;;;2.50;;
22080;SDS011;11207;59.512;18.050;2023-10-13T02:19:06;3.40;;;2.50;;
22080;SDS011;11207;59.512;18.050;2023-10-13T02:21:33;2.23;;;2.13;;
22080;SDS011;11207;59.512;18.050;2023-10-13T02:24:07;2.30;;;2.10;;
22080;SDS011;11207;59.512;18.050;2023-10-13T02:26:38;4.43;;;2.63;;
22080;SDS011;11207;59.512;18.050;2023-10-13T02:29:07;2.50;;;2.30;;
22080;SDS011;11207;59.512;18.050;2023-10-13T02:31:36;2.83;;;2.63;;
22080;SDS011;11207;59.512;18.050;2023-10-13T02:34:03;5.47;;;2.70;;
22080;SDS011;11207;59.512;18.050;2023-10-13T02:36:38;3.03;;;2.33;;
22080;SDS011;11207;59.512;18.050;2023-10-13T02:39:19;3.03;;;2.60;;
22080;SDS011;11207;59.512;18.050;2023-10-13T02:41:51;4.60;;;2.90;;
22080;SDS011;11207;59.512;18.050;2023-10-13T02:44:18;2.30;;;2.17;;
22080;SDS011;11207;59.512;18.050;2023-10-13T02:46:55;2.43;;;2.33;;
22080;SDS011;11207;59.512;18.050;2023-10-13T02:49:27;2.33;;;2.20;;
22080;SDS011;11207;59.512;18.050;2023-10-13T02:51:59;2.57;;;2.37;;
22080;SDS011;11207;59.512;18.050;2023-10-13T02:54:31;2.60;;;2.40;;
22080;SDS011;11207;59.512;18.050;2023-10-13T02:57:02;2.60;;;2.40;;
22080;SDS011;11207;59.512;18.050;2023-10-13T02:59:31;2.33;;;2.23;;
22080;SDS011;11207;59.512;18.050;2023-10-13T03:02:11;3.10;;;2.37;;
22080;SDS011;11207;59.512;18.050;2023-10-13T03:04:50;2.70;;;2.50;;
22080;SDS011;11207;59.512;18.050;2023-10-13T03:07:17;2.80;;;2.60;;
22080;SDS011;11207;59.512;18.050;2023-10-13T03:09:52;2.70;;;2.50;;
22080;SDS011;11207;59.512;18.050;2023-10-13T03:12:18;2.93;;;2.37;;
22080;SDS011;11207;59.512;18.050;2023-10-13T03:14:44;4.70;;;2.50;;
22080;SDS011;11207;59.512;18.050;2023-10-13T03:17:13;2.53;;;2.30;;
22080;SDS011;11207;59.512;18.050;2023-10-13T03:19:45;2.50;;;2.30;;
22080;SDS011;11207;59.512;18.050;2023-10-13T03:22:19;2.90;;;2.40;;
22080;SDS011;11207;59.512;18.050;2023-10-13T03:24:55;4.40;;;2.73;;
22080;SDS011;11207;59.512;18.050;2023-10-13T03:27:25;3.63;;;2.67;;
22080;SDS011;11207;59.512;18.050;2023-10-13T03:30:04;2.80;;;2.53;;
22080;SDS011;11207;59.512;18.050;2023-10-13T03:32:35;2.37;;;2.17;;
22080;SDS011;11207;59.512;18.050;2023-10-13T03:35:08;3.53;;;2.43;;
22080;SDS011;11207;59.512;18.050;2023-10-13T03:37:50;3.93;;;2.77;;
22080;SDS011;11207;59.512;18.050;2023-10-13T03:40:19;2.80;;;2.30;;
22080;SDS011;11207;59.512;18.050;2023-10-13T03:42:55;2.60;;;2.40;;
22080;SDS011;11207;59.512;18.050;2023-10-13T03:45:31;3.43;;;2.40;;
22080;SDS011;11207;59.512;18.050;2023-10-13T03:48:14;3.07;;;2.50;;
22080;SDS011;11207;59.512;18.050;2023-10-13T03:50:50;2.87;;;2.33;;
22080;SDS011;11207;59.512;18.050;2023-10-13T03:53:41;4.37;;;2.83;;
22080;SDS011;11207;59.512;18.050;2023-10-13T03:56:25;4.20;;;2.40;;
22080;SDS011;11207;59.512;18.050;2023-10-13T03:58:55;2.60;;;2.40;;
22080;SDS011;11207;59.512;18.050;2023-10-13T04:01:50;3.83;;;2.83;;
22080;SDS011;11207;59.512;18.050;2023-10-13T04:04:16;8.53;;;2.97;;
22080;SDS011;11207;59.512;18.050;2023-10-13T04:07:02;4.37;;;2.60;;
22080;SDS011;11207;59.512;18.050;2023-10-13T04:09:37;3.57;;;2.70;;
22080;SDS011;11207;59.512;18.050;2023-10-13T04:12:13;3.90;;;3.07;;
22080;SDS011;11207;59.512;18.050;2023-10-13T04:14:45;4.30;;;2.90;;
22080;SDS011;11207;59.512;18.050;2023-10-13T04:17:13;3.30;;;2.57;;
22080;SDS011;11207;59.512;18.050;2023-10-13T04:19:39;5.07;;;2.73;;
22080;SDS011;11207;59.512;18.050;2023-10-13T04:22:26;3.87;;;2.70;;
22080;SDS011;11207;59.512;18.050;2023-10-13T04:28:02;4.43;;;2.50;;
22080;SDS011;11207;59.512;18.050;2023-10-13T04:30:39;4.83;;;2.70;;
22080;SDS011;11207;59.512;18.050;2023-10-13T04:33:22;3.63;;;2.83;;
22080;SDS011;11207;59.512;18.050;2023-10-13T04:39:02;2.77;;;2.57;;
22080;SDS011;11207;59.512;18.050;2023-10-13T04:41:29;7.40;;;2.57;;
22080;SDS011;11207;59.512;18.050;2023-10-13T04:44:07;3.40;;;2.53;;
22080;SDS011;11207;59.512;18.050;2023-10-13T04:46:55;5.13;;;2.80;;
22080;SDS011;11207;59.512;18.050;2023-10-13T04:49:24;3.17;;;2.73;;
22080;SDS011;11207;59.512;18.050;2023-10-13T04:52:02;3.00;;;2.70;;
22080;SDS011;11207;59.512;18.050;2023-10-13T04:54:43;4.03;;;2.67;;
22080;SDS011;11207;59.512;18.050;2023-10-13T04:57:12;4.50;;;2.50;;
22080;SDS011;11207;59.512;18.050;2023-10-13T04:59:51;3.33;;;2.47;;
22080;SDS011;11207;59.512;18.050;2023-10-13T05:02:37;4.00;;;2.90;;
22080;SDS011;11207;59.512;18.050;2023-10-13T05:05:15;3.57;;;2.40;;
22080;SDS011;11207;59.512;18.050;2023-10-13T05:07:46;3.33;;;2.80;;
22080;SDS011;11207;59.512;18.050;2023-10-13T05:10:33;2.70;;;2.50;;
22080;SDS011;11207;59.512;18.050;2023-10-13T05:13:18;3.30;;;2.83;;
22080;SDS011;11207;59.512;18.050;2023-10-13T05:16:03;3.27;;;2.80;;
22080;SDS011;11207;59.512;18.050;2023-10-13T05:18:48;3.10;;;2.80;;
22080;SDS011;11207;59.512;18.050;2023-10-13T05:21:32;3.47;;;3.17;;
22080;SDS011;11207;59.512;18.050;2023-10-13T05:24:18;3.13;;;2.50;;
22080;SDS011;11207;59.512;18.050;2023-10-13T05:27:02;6.33;;;3.10;;
22080;SDS011;11207;59.512;18.050;2023-10-13T05:29:47;2.53;;;2.33;;
22080;SDS011;11207;59.512;18.050;2023-10-13T05:32:33;4.20;;;2.90;;
22080;SDS011;11207;59.512;18.050;2023-10-13T05:35:22;3.50;;;2.80;;
22080;SDS011;11207;59.512;18.050;2023-10-13T05:38:08;3.20;;;2.90;;
22080;SDS011;11207;59.512;18.050;2023-10-13T05:40:56;4.53;;;2.70;;
22080;SDS011;11207;59.512;18.050;2023-10-13T05:43:46;5.37;;;2.57;;
22080;SDS011;11207;59.512;18.050;2023-10-13T05:46:31;3.00;;;2.70;;
22080;SDS011;11207;59.512;18.050;2023-10-13T05:49:01;5.27;;;3.20;;
22080;SDS011;11207;59.512;18.050;2023-10-13T05:51:36;3.03;;;2.80;;
22080;SDS011;11207;59.512;18.050;2023-10-13T05:54:17;4.43;;;3.60;;
22080;SDS011;11207;59.512;18.050;2023-10-13T05:59:29;8.10;;;3.50;;
22080;SDS011;11207;59.512;18.050;2023-10-13T06:02:15;8.23;;;4.87;;
22080;SDS011;11207;59.512;18.050;2023-10-13T06:05:03;6.20;;;4.83;;
22080;SDS011;11207;59.512;18.050;2023-10-13T06:07:50;22.40;;;10.37;;
22080;SDS011;11207;59.512;18.050;2023-10-13T06:10:35;11.40;;;7.07;;
22080;SDS011;11207;59.512;18.050;2023-10-13T06:13:20;23.53;;;11.93;;
22080;SDS011;11207;59.512;18.050;2023-10-13T06:16:08;26.37;;;12.30;;
22080;SDS011;11207;59.512;18.050;2023-10-13T06:19:00;13.87;;;8.53;;
22080;SDS011;11207;59.512;18.050;2023-10-13T06:21:45;9.40;;;5.53;;
22080;SDS011;11207;59.512;18.050;2023-10-13T06:24:31;5.37;;;4.23;;
22080;SDS011;11207;59.512;18.050;2023-10-13T06:27:16;5.53;;;3.87;;
22080;SDS011;11207;59.512;18.050;2023-10-13T06:30:03;3.10;;;2.80;;
22080;SDS011;11207;59.512;18.050;2023-10-13T06:32:30;4.97;;;2.97;;
22080;SDS011;11207;59.512;18.050;2023-10-13T06:34:57;5.97;;;2.77;;
22080;SDS011;11207;59.512;18.050;2023-10-13T06:37:25;8.17;;;2.90;;
22080;SDS011;11207;59.512;18.050;2023-10-13T06:39:52;4.80;;;2.50;;
22080;SDS011;11207;59.512;18.050;2023-10-13T06:42:27;6.10;;;3.13;;
22080;SDS011;11207;59.512;18.050;2023-10-13T06:44:54;6.40;;;3.10;;
22080;SDS011;11207;59.512;18.050;2023-10-13T06:47:20;3.50;;;2.70;;
22080;SDS011;11207;59.512;18.050;2023-10-13T06:49:48;7.83;;;3.10;;
22080;SDS011;11207;59.512;18.050;2023-10-13T06:52:16;3.73;;;3.00;;
22080;SDS011;11207;59.512;18.050;2023-10-13T06:54:44;7.40;;;2.80;;
22080;SDS011;11207;59.512;18.050;2023-10-13T06:57:10;6.03;;;2.93;;
22080;SDS011;11207;59.512;18.050;2023-10-13T06:59:39;5.13;;;3.20;;
22080;SDS011;11207;59.512;18.050;2023-10-13T07:02:06;3.93;;;2.97;;
22080;SDS011;11207;59.512;18.050;2023-10-13T07:04:40;8.33;;;3.00;;
22080;SDS011;11207;59.512;18.050;2023-10-13T07:07:07;6.13;;;2.87;;
22080;SDS011;11207;59.512;18.050;2023-10-13T07:09:38;8.73;;;3.50;;
22080;SDS011;11207;59.512;18.050;2023-10-13T07:12:05;5.97;;;2.80;;
22080;SDS011;11207;59.512;18.050;2023-10-13T07:14:33;8.87;;;2.93;;
22080;SDS011;11207;59.512;18.050;2023-10-13T07:17:05;9.97;;;3.23;;
22080;SDS011;11207;59.512;18.050;2023-10-13T07:19:33;6.93;;;3.53;;
22080;SDS011;11207;59.512;18.050;2023-10-13T07:22:01;3.97;;;3.03;;
22080;SDS011;11207;59.512;18.050;2023-10-13T07:24:46;12.30;;;3.27;;
22080;SDS011;11207;59.512;18.050;2023-10-13T07:27:20;9.63;;;2.90;;
22080;SDS011;11207;59.512;18.050;2023-10-13T07:29:56;13.73;;;4.20;;
22080;SDS011;11207;59.512;18.050;2023-10-13T07:32:39;5.67;;;2.70;;
22080;SDS011;11207;59.512;18.050;2023-10-13T07:35:19;8.23;;;2.80;;
22080;SDS011;11207;59.512;18.050;2023-10-13T07:37:51;13.93;;;3.03;;
22080;SDS011;11207;59.512;18.050;2023-10-13T07:40:19;6.33;;;2.80;;
22080;SDS011;11207;59.512;18.050;2023-10-13T07:42:51;8.67;;;2.73;;
22080;SDS011;11207;59.512;18.050;2023-10-13T07:45:17;6.40;;;2.93;;
22080;SDS011;11207;59.512;18.050;2023-10-13T07:47:47;8.73;;;2.73;;
22080;SDS011;11207;59.512;18.050;2023-10-13T07:50:15;12.20;;;3.03;;
22080;SDS011;11207;59.512;18.050;2023-10-13T07:52:49;3.63;;;2.33;;
22080;SDS011;11207;59.512;18.050;2023-10-13T07:55:30;3.47;;;2.53;;
22080;SDS011;11207;59.512;18.050;2023-10-13T07:57:58;8.10;;;2.80;;
22080;SDS011;11207;59.512;18.050;2023-10-13T08:00:26;7.10;;;2.73;;
22080;SDS011;11207;59.512;18.050;2023-10-13T08:02:57;5.70;;;2.67;;
22080;SDS011;11207;59.512;18.050;2023-10-13T08:05:44;6.97;;;3.03;;
22080;SDS011;11207;59.512;18.050;2023-10-13T08:08:31;5.80;;;2.47;;
22080;SDS011;11207;59.512;18.050;2023-10-13T08:11:14;5.73;;;2.50;;
22080;SDS011;11207;59.512;18.050;2023-10-13T08:13:52;5.43;;;2.60;;
22080;SDS011;11207;59.512;18.050;2023-10-13T08:16:24;7.07;;;2.77;;
22080;SDS011;11207;59.512;18.050;2023-10-13T08:19:15;4.83;;;2.67;;
22080;SDS011;11207;59.512;18.050;2023-10-13T08:21:45;5.80;;;2.60;;
22080;SDS011;11207;59.512;18.050;2023-10-13T08:24:17;7.67;;;2.77;;
22080;SDS011;11207;59.512;18.050;2023-10-13T08:27:02;7.23;;;2.60;;
22080;SDS011;11207;59.512;18.050;2023-10-13T08:29:49;8.00;;;2.60;;
22080;SDS011;11207;59.512;18.050;2023-10-13T08:32:21;8.27;;;2.73;;
22080;SDS011;11207;59.512;18.050;2023-10-13T08:34:54;5.57;;;2.60;;
22080;SDS011;11207;59.512;18.050;2023-10-13T08:37:21;5.63;;;2.47;;
22080;SDS011;11207;59.512;18.050;2023-10-13T08:39:50;8.13;;;2.83;;
22080;SDS011;11207;59.512;18.050;2023-10-13T08:42:29;4.23;;;2.40;;
22080;SDS011;11207;59.512;18.050;2023-10-13T08:45:10;6.60;;;2.60;;
22080;SDS011;11207;59.512;18.050;2023-10-13T08:48:07;8.27;;;2.87;;
22080;SDS011;11207;59.512;18.050;2023-10-13T08:50:44;4.87;;;2.73;;
22080;SDS011;11207;59.512;18.050;2023-10-13T08:56:11;6.30;;;2.60;;
22080;SDS011;11207;59.512;18.050;2023-10-13T08:58:38;7.37;;;2.70;;
22080;SDS011;11207;59.512;18.050;2023-10-13T09:01:27;6.97;;;2.77;;
22080;SDS011;11207;59.512;18.050;2023-10-13T09:04:25;8.53;;;2.87;;
22080;SDS011;11207;59.512;18.050;2023-10-13T09:06:57;9.20;;;3.00;;
22080;SDS011;11207;59.512;18.050;2023-10-13T09:12:17;5.50;;;2.43;;
22080;SDS011;11207;59.512;18.050;2023-10-13T09:14:51;7.77;;;3.30;;
22080;SDS011;11207;59.512;18.050;2023-10-13T09:17:29;7.93;;;2.50;;
22080;SDS011;11207;59.512;18.050;2023-10-13T09:19:58;7.50;;;3.00;;
22080;SDS011;11207;59.512;18.050;2023-10-13T09:22:44;5.47;;;2.67;;
22080;SDS011;11207;59.512;18.050;2023-10-13T09:25:22;10.00;;;3.10;;
22080;SDS011;11207;59.512;18.050;2023-10-13T09:27:48;11.53;;;3.10;;
22080;SDS011;11207;59.512;18.050;2023-10-13T09:30:18;12.83;;;3.00;;
22080;SDS011;11207;59.512;18.050;2023-10-13T09:33:01;11.47;;;3.27;;
22080;SDS011;11207;59.512;18.050;2023-10-13T09:35:29;7.90;;;2.77;;
22080;SDS011;11207;59.512;18.050;2023-10-13T09:37:59;5.67;;;2.77;;
22080;SDS011;11207;59.512;18.050;2023-10-13T09:40:29;11.60;;;3.13;;
22080;SDS011;11207;59.512;18.050;2023-10-13T09:43:01;5.90;;;2.77;;
22080;SDS011;11207;59.512;18.050;2023-10-13T09:45:33;10.17;;;3.07;;
22080;SDS011;11207;59.512;18.050;2023-10-13T09:48:37;5.67;;;2.63;;
22080;SDS011;11207;59.512;18.050;2023-10-13T09:51:15;8.27;;;2.60;;
22080;SDS011;11207;59.512;18.050;2023-10-13T09:54:03;10.13;;;2.80;;
22080;SDS011;11207;59.512;18.050;2023-10-13T09:56:43;8.80;;;2.70;;
22080;SDS011;11207;59.512;18.050;2023-10-13T09:59:51;9.70;;;2.83;;
22080;SDS011;11207;59.512;18.050;2023-10-13T10:02:18;7.93;;;3.07;;
22080;SDS011;11207;59.512;18.050;2023-10-13T10:04:51;8.13;;;2.70;;
22080;SDS011;11207;59.512;18.050;2023-10-13T10:07:24;6.47;;;2.87;;
22080;SDS011;11207;59.512;18.050;2023-10-13T10:09:57;8.90;;;2.97;;
22080;SDS011;11207;59.512;18.050;2023-10-13T10:18:22;8.63;;;2.60;;
22080;SDS011;11207;59.512;18.050;2023-10-13T10:20:50;6.77;;;2.87;;
22080;SDS011;11207;59.512;18.050;2023-10-13T10:26:14;7.30;;;2.90;;
22080;SDS011;11207;59.512;18.050;2023-10-13T10:28:45;8.80;;;3.30;;
22080;SDS011;11207;59.512;18.050;2023-10-13T10:31:11;9.77;;;2.87;;
22080;SDS011;11207;59.512;18.050;2023-10-13T10:33:39;6.27;;;2.50;;
22080;SDS011;11207;59.512;18.050;2023-10-13T10:36:05;6.67;;;2.43;;
22080;SDS011;11207;59.512;18.050;2023-10-13T10:38:31;6.90;;;2.93;;
22080;SDS011;11207;59.512;18.050;2023-10-13T10:41:06;9.60;;;2.67;;
22080;SDS011;11207;59.512;18.050;2023-10-13T10:43:37;8.60;;;2.67;;
22080;SDS011;11207;59.512;18.050;2023-10-13T10:48:46;7.63;;;2.40;;
22080;SDS011;11207;59.512;18.050;2023-10-13T10:51:14;10.27;;;3.23;;
22080;SDS011;11207;59.512;18.050;2023-10-13T10:53:49;10.87;;;3.07;;
22080;SDS011;11207;59.512;18.050;2023-10-13T10:56:22;10.90;;;3.57;;
22080;SDS011;11207;59.512;18.050;2023-10-13T10:59:03;8.40;;;3.03;;
22080;SDS011;11207;59.512;18.050;2023-10-13T11:01:44;5.43;;;2.60;;
22080;SDS011;11207;59.512;18.050;2023-10-13T11:04:17;6.90;;;2.73;;
22080;SDS011;11207;59.512;18.050;2023-10-13T11:09:14;8.10;;;2.80;;
22080;SDS011;11207;59.512;18.050;2023-10-13T11:11:51;8.10;;;3.40;;
22080;SDS011;11207;59.512;18.050;2023-10-13T11:14:25;8.47;;;2.70;;
22080;SDS011;11207;59.512;18.050;2023-10-13T11:16:53;9.83;;;3.00;;
22080;SDS011;11207;59.512;18.050;2023-10-13T11:19:20;6.83;;;2.53;;
22080;SDS011;11207;59.512;18.050;2023-10-13T11:21:53;9.23;;;2.67;;
22080;SDS011;11207;59.512;18.050;2023-10-13T11:24:19;9.10;;;2.73;;
22080;SDS011;11207;59.512;18.050;2023-10-13T11:26:48;8.70;;;2.67;;
22080;SDS011;11207;59.512;18.050;2023-10-13T11:29:17;5.30;;;2.97;;
22080;SDS011;11207;59.512;18.050;2023-10-13T11:31:47;9.20;;;2.60;;
22080;SDS011;11207;59.512;18.050;2023-10-13T11:34:24;10.87;;;2.53;;
22080;SDS011;11207;59.512;18.050;2023-10-13T11:36:50;8.07;;;2.70;;
22080;SDS011;11207;59.512;18.050;2023-10-13T11:39:18;7.30;;;2.53;;
22080;SDS011;11207;59.512;18.050;2023-10-13T11:41:58;5.87;;;2.50;;
22080;SDS011;11207;59.512;18.050;2023-10-13T11:44:24;8.57;;;3.17;;
22080;SDS011;11207;59.512;18.050;2023-10-13T11:46:51;5.67;;;3.17;;
22080;SDS011;11207;59.512;18.050;2023-10-13T11:49:43;6.27;;;2.53;;
22080;SDS011;11207;59.512;18.050;2023-10-13T11:52:08;9.27;;;3.57;;
22080;SDS011;11207;59.512;18.050;2023-10-13T11:54:41;8.83;;;2.97;;
22080;SDS011;11207;59.512;18.050;2023-10-13T11:57:08;6.77;;;2.70;;
22080;SDS011;11207;59.512;18.050;2023-10-13T11:59:34;13.57;;;3.23;;
22080;SDS011;11207;59.512;18.050;2023-10-13T12:02:06;14.03;;;3.70;;
22080;SDS011;11207;59.512;18.050;2023-10-13T12:04:35;7.73;;;2.73;;
22080;SDS011;11207;59.512;18.050;2023-10-13T12:07:17;8.77;;;2.77;;
22080;SDS011;11207;59.512;18.050;2023-10-13T12:10:06;7.57;;;2.80;;
22080;SDS011;11207;59.512;18.050;2023-10-13T12:12:40;10.90;;;3.10;;
22080;SDS011;11207;59.512;18.050;2023-10-13T12:15:09;12.27;;;2.87;;
22080;SDS011;11207;59.512;18.050;2023-10-13T12:17:39;11.27;;;2.73;;
22080;SDS011;11207;59.512;18.050;2023-10-13T12:20:11;8.93;;;2.70;;
22080;SDS011;11207;59.512;18.050;2023-10-13T12:22:43;11.30;;;3.10;;
22080;SDS011;11207;59.512;18.050;2023-10-13T12:25:16;9.53;;;2.83;;
22080;SDS011;11207;59.512;18.050;2023-10-13T12:27:57;10.70;;;2.80;;
22080;SDS011;11207;59.512;18.050;2023-10-13T12:30:31;9.27;;;3.10;;
22080;SDS011;11207;59.512;18.050;2023-10-13T12:33:18;9.33;;;3.10;;
22080;SDS011;11207;59.512;18.050;2023-10-13T12:35:57;8.23;;;3.07;;
22080;SDS011;11207;59.512;18.050;2023-10-13T12:38:39;9.77;;;3.27;;
22080;SDS011;11207;59.512;18.050;2023-10-13T12:41:12;9.67;;;2.97;;
22080;SDS011;11207;59.512;18.050;2023-10-13T12:43:57;9.23;;;2.70;;
22080;SDS011;11207;59.512;18.050;2023-10-13T12:46:42;7.37;;;2.80;;
22080;SDS011;11207;59.512;18.050;2023-10-13T12:49:27;7.50;;;2.80;;
22080;SDS011;11207;59.512;18.050;2023-10-13T12:52:09;5.60;;;2.77;;
22080;SDS011;11207;59.512;18.050;2023-10-13T12:54:53;7.93;;;2.60;;
22080;SDS011;11207;59.512;18.050;2023-10-13T12:57:22;9.73;;;3.00;;
22080;SDS011;11207;59.512;18.050;2023-10-13T12:59:50;14.33;;;3.00;;
22080;SDS011;11207;59.512;18.050;2023-10-13T13:02:19;13.53;;;3.00;;
22080;SDS011;11207;59.512;18.050;2023-10-13T13:04:52;11.47;;;3.23;;
22080;SDS011;11207;59.512;18.050;2023-10-13T13:07:21;11.03;;;3.43;;
22080;SDS011;11207;59.512;18.050;2023-10-13T13:09:55;10.33;;;2.90;;
22080;SDS011;11207;59.512;18.050;2023-10-13T13:12:27;7.10;;;2.47;;
22080;SDS011;11207;59.512;18.050;2023-10-13T13:14:55;11.00;;;3.27;;
22080;SDS011;11207;59.512;18.050;2023-10-13T13:17:21;10.43;;;3.07;;
22080;SDS011;11207;59.512;18.050;2023-10-13T13:19:48;13.07;;;3.37;;
22080;SDS011;11207;59.512;18.050;2023-10-13T13:22:14;11.83;;;3.07;;
22080;SDS011;11207;59.512;18.050;2023-10-13T13:24:42;9.23;;;3.03;;
22080;SDS011;11207;59.512;18.050;2023-10-13T13:27:10;8.33;;;2.90;;
22080;SDS011;11207;59.512;18.050;2023-10-13T13:29:43;10.13;;;3.17;;
22080;SDS011;11207;59.512;18.050;2023-10-13T13:32:09;12.63;;;3.17;;
22080;SDS011;11207;59.512;18.050;2023-10-13T13:34:44;12.50;;;2.93;;
22080;SDS011;11207;59.512;18.050;2023-10-13T13:37:18;8.87;;;3.00;;
22080;SDS011;11207;59.512;18.050;2023-10-13T13:39:45;6.63;;;2.97;;
22080;SDS011;11207;59.512;18.050;2023-10-13T13:42:13;16.93;;;3.80;;
22080;SDS011;11207;59.512;18.050;2023-10-13T13:44:46;12.93;;;3.40;;
22080;SDS011;11207;59.512;18.050;2023-10-13T13:47:13;15.93;;;3.80;;
22080;SDS011;11207;59.512;18.050;2023-10-13T13:49:39;7.03;;;2.50;;
22080;SDS011;11207;59.512;18.050;2023-10-13T13:52:09;11.20;;;4.70;;
22080;SDS011;11207;59.512;18.050;2023-10-13T13:54:36;8.80;;;3.67;;
22080;SDS011;11207;59.512;18.050;2023-10-13T13:57:05;10.77;;;3.83;;
22080;SDS011;11207;59.512;18.050;2023-10-13T13:59:32;13.37;;;3.10;;
22080;SDS011;11207;59.512;18.050;2023-10-13T14:01:59;9.97;;;3.27;;
22080;SDS011;11207;59.512;18.050;2023-10-13T14:04:32;11.67;;;3.57;;
22080;SDS011;11207;59.512;18.050;2023-10-13T14:06:59;15.07;;;3.90;;
22080;SDS011;11207;59.512;18.050;2023-10-13T14:09:25;14.53;;;4.40;;
22080;SDS011;11207;59.512;18.050;2023-10-13T14:12:07;13.70;;;3.40;;
22080;SDS011;11207;59.512;18.050;2023-10-13T14:14:56;21.70;;;3.93;;
22080;SDS011;11207;59.512;18.050;2023-10-13T14:17:23;12.33;;;3.63;;
22080;SDS011;11207;59.512;18.050;2023-10-13T14:19:58;17.93;;;3.87;;
22080;SDS011;11207;59.512;18.050;2023-10-13T14:22:24;8.23;;;2.77;;
22080;SDS011;11207;59.512;18.050;2023-10-13T14:24:50;19.00;;;4.57;;
22080;SDS011;11207;59.512;18.050;2023-10-13T14:27:21;12.50;;;3.43;;
22080;SDS011;11207;59.512;18.050;2023-10-13T14:29:49;10.13;;;3.00;;
22080;SDS011;11207;59.512;18.050;2023-10-13T14:32:19;9.13;;;3.30;;
22080;SDS011;11207;59.512;18.050;2023-10-13T14:34:49;14.67;;;3.93;;
22080;SDS011;11207;59.512;18.050;2023-10-13T14:37:20;11.20;;;3.60;;
22080;SDS011;11207;59.512;18.050;2023-10-13T14:39:54;11.20;;;3.37;;
22080;SDS011;11207;59.512;18.050;2023-10-13T14:42:24;12.77;;;3.63;;
22080;SDS011;11207;59.512;18.050;2023-10-13T14:44:52;13.93;;;3.27;;
22080;SDS011;11207;59.512;18.050;2023-10-13T14:47:25;13.13;;;4.10;;
22080;SDS011;11207;59.512;18.050;2023-10-13T14:49:52;11.07;;;3.50;;
22080;SDS011;11207;59.512;18.050;2023-10-13T14:52:20;24.47;;;4.77;;
22080;SDS011;11207;59.512;18.050;2023-10-13T14:54:46;11.57;;;3.60;;
22080;SDS011;11207;59.512;18.050;2023-10-13T14:57:15;9.77;;;3.30;;
22080;SDS011;11207;59.512;18.050;2023-10-13T14:59:41;11.20;;;3.60;;
22080;SDS011;11207;59.512;18.050;2023-10-13T15:02:07;14.40;;;3.87;;
22080;SDS011;11207;59.512;18.050;2023-10-13T15:04:34;18.20;;;3.93;;
22080;SDS011;11207;59.512;18.050;2023-10-13T15:07:00;12.70;;;4.50;;
22080;SDS011;11207;59.512;18.050;2023-10-13T15:09:32;12.53;;;4.10;;
22080;SDS011;11207;59.512;18.050;2023-10-13T15:11:58;17.53;;;4.33;;
22080;SDS011;11207;59.512;18.050;2023-10-13T15:14:25;19.13;;;5.00;;
22080;SDS011;11207;59.512;18.050;2023-10-13T15:16:50;13.30;;;4.17;;
22080;SDS011;11207;59.512;18.050;2023-10-13T15:19:18;14.23;;;3.60;;
22080;SDS011;11207;59.512;18.050;2023-10-13T15:21:44;19.00;;;4.83;;
22080;SDS011;11207;59.512;18.050;2023-10-13T15:24:16;13.07;;;4.17;;
22080;SDS011;11207;59.512;18.050;2023-10-13T15:26:44;10.17;;;3.90;;
22080;SDS011;11207;59.512;18.050;2023-10-13T15:29:17;13.83;;;3.80;;
22080;SDS011;11207;59.512;18.050;2023-10-13T15:31:50;14.23;;;4.77;;
22080;SDS011;11207;59.512;18.050;2023-10-13T15:34:26;20.63;;;5.00;;
22080;SDS011;11207;59.512;18.050;2023-10-13T15:36:55;16.30;;;4.47;;